QRA weather

Rand Airport
Johannesburg, Gauteng, South Africa

Public forecast

Using degrees Celsius for public forecast. Weather courtesy of forecast.io.

METAR (pilot weather report)

Report is more than 6 hours old.

Retrieved 2018/05/21 08:00 UTC (1 month ago):

FAGM 210800Z 34010KT CAVOK 15/11 Q1025

TAF (pilot weather forecast)

Forecast is more than 12 hours old.

Closest forecast is OR Tambo International Airport, 8.0 nm (14.9 km) NE. Retrieved 2018/06/23 00:00 UTC (13 hours ago):

TAF FAOR 230235Z 2300/2406 01006KT CAVOK BECMG 2307/2309 31010KT BECMG 2401/2403 VRB03KT TX19/2312Z TN07/2305Z